Time;durP1;ratioP1;P1;durP2;ratioP2;P2;SDS_P1;SDS_P2;PMS_P1;PMS_P2;Temp;Humidity;BMP_temperature;BMP_pressure;BME280_temperature;BME280_humidity;BME280_pressure;Samples;Min_cycle;Max_cycle;Signal;HPM_P1;HPM_P2
2021/10/24 00:00:09;;;;;;;5.70;3.30;;;;;;;2.45;100.00;100166.84;5058828;28;20044;-80
2021/10/24 00:02:37;;;;;;;8.38;2.92;;;;;;;2.32;100.00;100137.34;5073796;28;20056;-80
2021/10/24 00:05:04;;;;;;;5.95;3.25;;;;;;;2.40;100.00;100147.53;5074059;28;20109;-80
2021/10/24 00:07:31;;;;;;;21.70;7.68;;;;;;;2.41;100.00;100155.47;5071649;28;20056;-80
2021/10/24 00:09:58;;;;;;;8.75;3.28;;;;;;;2.44;100.00;100157.09;5072878;28;20052;-80
2021/10/24 00:12:25;;;;;;;22.10;4.90;;;;;;;2.50;100.00;100166.50;5074383;28;20129;-81
2021/10/24 00:14:52;;;;;;;8.35;3.92;;;;;;;2.48;100.00;100156.75;5070887;28;20097;-80
2021/10/24 00:17:19;;;;;;;6.38;3.70;;;;;;;2.58;100.00;100162.31;5073082;28;20203;-81
2021/10/24 00:19:47;;;;;;;6.35;3.20;;;;;;;2.70;100.00;100160.59;5073636;28;20567;-80
2021/10/24 00:22:14;;;;;;;8.00;3.83;;;;;;;2.73;100.00;100163.03;5073913;28;20055;-80
2021/10/24 00:24:40;;;;;;;6.55;3.50;;;;;;;2.73;100.00;100151.47;5072517;28;20040;-80
2021/10/24 00:27:07;;;;;;;9.77;3.58;;;;;;;2.72;100.00;100152.41;5074044;28;20080;-80
2021/10/24 00:29:34;;;;;;;7.70;3.38;;;;;;;2.68;100.00;100151.78;5073339;28;20141;-80
2021/10/24 00:32:01;;;;;;;6.93;3.38;;;;;;;2.64;100.00;100139.53;5072952;28;20393;-80
2021/10/24 00:34:28;;;;;;;8.27;3.40;;;;;;;2.69;100.00;100148.13;5073005;28;20113;-80
2021/10/24 00:36:56;;;;;;;6.93;3.28;;;;;;;2.63;100.00;100146.75;5073417;28;20053;-80
2021/10/24 00:39:23;;;;;;;4.90;2.83;;;;;;;2.59;100.00;100145.25;5073480;28;20044;-80
2021/10/24 00:41:50;;;;;;;8.98;3.40;;;;;;;2.57;100.00;100140.94;5072793;28;20094;-80
2021/10/24 00:44:23;;;;;;;8.25;3.40;;;;;;;2.53;100.00;100147.50;5073257;28;20049;-80
2021/10/24 00:46:50;;;;;;;7.97;3.22;;;;;;;2.40;100.00;100142.16;5073358;28;20048;-80
2021/10/24 00:49:17;;;;;;;6.90;3.13;;;;;;;2.40;100.00;100150.22;5073358;28;20813;-80
2021/10/24 00:51:44;;;;;;;8.57;2.85;;;;;;;2.17;100.00;100117.81;5073556;28;20094;-80
2021/10/24 00:54:14;;;;;;;11.43;3.67;;;;;;;2.22;100.00;100138.94;5073004;28;20086;-80
2021/10/24 00:56:42;;;;;;;7.82;2.92;;;;;;;2.18;100.00;100132.91;5072643;28;20044;-80
2021/10/24 00:59:09;;;;;;;6.78;3.40;;;;;;;2.19;100.00;100126.59;5064336;28;20055;-80
2021/10/24 01:01:37;;;;;;;4.85;3.15;;;;;;;2.20;100.00;100128.31;5073468;28;20114;-80
2021/10/24 01:04:04;;;;;;;8.02;3.05;;;;;;;2.23;100.00;100122.72;5073415;28;20045;-80
2021/10/24 01:06:34;;;;;;;4.47;3.22;;;;;;;2.21;100.00;100123.81;5073147;28;20522;-80
2021/10/24 01:09:00;;;;;;;;;;;;;;;2.36;100.00;100120.03;5073422;28;20541;-80
2021/10/24 01:11:29;;;;;;;4.85;3.45;;;;;;;2.51;100.00;100111.88;5072714;28;19966;-80
2021/10/24 01:13:56;;;;;;;7.85;3.90;;;;;;;2.53;100.00;100113.47;5069371;28;20037;-81
2021/10/24 01:16:23;;;;;;;8.73;4.10;;;;;;;2.52;100.00;100097.47;5070772;28;20052;-80
2021/10/24 01:18:50;;;;;;;9.63;4.50;;;;;;;2.56;100.00;100083.72;5072622;28;20385;-80
2021/10/24 01:21:19;;;;;;;7.93;4.20;;;;;;;2.52;100.00;100087.59;5072460;28;20154;-80
2021/10/24 01:23:46;;;;;;;4.80;4.00;;;;;;;2.51;100.00;100069.75;5072479;28;20068;-80
2021/10/24 01:26:13;;;;;;;7.80;3.67;;;;;;;2.56;100.00;100074.78;5072708;28;20056;-80
2021/10/24 01:28:40;;;;;;;7.93;3.67;;;;;;;2.54;100.00;100077.59;5072290;28;20177;-80
2021/10/24 01:31:07;;;;;;;5.68;3.10;;;;;;;2.60;100.00;100082.50;5071910;28;20048;-81
2021/10/24 01:33:34;;;;;;;7.55;3.60;;;;;;;2.68;100.00;100090.03;5071892;28;20401;-80
2021/10/24 01:36:03;;;;;;;7.10;3.60;;;;;;;2.57;100.00;100073.84;5072386;28;20080;-79
2021/10/24 01:38:31;;;;;;;9.80;3.88;;;;;;;2.63;100.00;100068.00;5071767;28;20045;-80
2021/10/24 01:40:59;;;;;;;8.02;3.75;;;;;;;2.73;100.00;100074.44;5072777;28;20049;-79
2021/10/24 01:43:28;;;;;;;12.32;3.65;;;;;;;2.67;100.00;100066.84;5072548;28;20044;-80
2021/10/24 01:45:55;;;;;;;7.35;3.60;;;;;;;2.83;100.00;100063.84;5072078;28;20055;-82
2021/10/24 01:48:23;;;;;;;7.65;3.45;;;;;;;2.78;100.00;100072.25;5066740;28;20048;-80
2021/10/24 01:50:52;;;;;;;8.32;3.75;;;;;;;2.70;100.00;100055.88;5071426;28;20048;-80
2021/10/24 01:53:20;;;;;;;7.80;3.72;;;;;;;2.65;100.00;100050.84;5071145;28;20049;-79
2021/10/24 01:55:49;;;;;;;5.90;3.80;;;;;;;2.78;100.00;100063.34;5072116;28;20117;-80
2021/10/24 01:58:16;;;;;;;10.35;3.63;;;;;;;2.69;100.00;100048.78;5067446;28;20102;-80
2021/10/24 02:00:44;;;;;;;6.45;3.30;;;;;;;2.68;100.00;100043.50;5071898;28;20049;-80
2021/10/24 02:03:11;;;;;;;10.65;3.67;;;;;;;2.65;100.00;100053.53;5071652;28;20385;-80
2021/10/24 02:05:38;;;;;;;10.68;3.40;;;;;;;2.61;100.00;100065.44;5066706;28;20041;-80
2021/10/24 02:08:05;;;;;;;9.30;3.28;;;;;;;2.48;100.00;100053.88;5070586;28;20048;-80
2021/10/24 02:10:33;;;;;;;8.18;3.47;;;;;;;2.33;100.00;100063.03;5071840;28;20040;-80
2021/10/24 02:13:01;;;;;;;5.68;3.40;;;;;;;2.06;100.00;100045.25;5071639;28;20044;-80
2021/10/24 02:15:28;;;;;;;5.50;3.20;;;;;;;2.05;100.00;100054.28;5070935;28;20064;-80
2021/10/24 02:17:55;;;;;;;8.50;2.90;;;;;;;1.84;100.00;100048.63;5071928;28;20044;-80
2021/10/24 02:20:22;;;;;;;4.07;2.60;;;;;;;1.88;100.00;100053.66;5071525;28;20520;-80
2021/10/24 02:22:50;;;;;;;7.20;3.40;;;;;;;1.69;100.00;100039.81;5071671;28;20052;-80
2021/10/24 02:25:17;;;;;;;3.97;2.95;;;;;;;1.82;100.00;100058.56;5071376;28;20094;-80
2021/10/24 02:27:44;;;;;;;12.05;3.20;;;;;;;1.66;100.00;100046.25;5071843;28;20053;-80
2021/10/24 02:30:12;;;;;;;5.55;2.63;;;;;;;1.58;100.00;100045.91;5071236;28;20040;-81
2021/10/24 02:32:40;;;;;;;7.95;2.67;;;;;;;1.40;100.00;100039.97;5071479;28;20113;-80
2021/10/24 02:35:08;;;;;;;6.43;2.70;;;;;;;1.41;100.00;100052.41;5071123;28;20102;-80
2021/10/24 02:37:35;;;;;;;4.93;3.17;;;;;;;1.33;100.00;100042.22;5071777;28;20045;-80
2021/10/24 02:40:02;;;;;;;6.03;3.65;;;;;;;1.40;100.00;100042.66;5071062;28;20040;-80
2021/10/24 02:42:29;;;;;;;7.38;3.00;;;;;;;1.29;100.00;100026.47;5071880;28;20040;-80
2021/10/24 02:44:55;;;;;;;5.55;3.03;;;;;;;1.29;100.00;100031.81;5072962;28;20083;-80
2021/10/24 02:47:24;;;;;;;7.63;3.30;;;;;;;1.46;100.00;100044.06;5075629;28;20048;-80
2021/10/24 02:49:50;;;;;;;6.07;3.10;;;;;;;1.39;100.00;100035.59;5075676;28;20105;-80
2021/10/24 02:52:17;;;;;;;9.18;2.90;;;;;;;1.41;100.00;100028.31;5075517;28;20075;-79
2021/10/24 02:54:44;;;;;;;8.20;2.88;;;;;;;1.40;100.00;100040.84;5075249;28;20068;-80
2021/10/24 02:57:11;;;;;;;4.53;3.00;;;;;;;1.36;100.00;100041.16;5075090;28;20051;-80
2021/10/24 02:59:38;;;;;;;7.53;3.10;;;;;;;1.35;100.00;100036.75;5075042;28;20048;-80
2021/10/24 03:02:05;;;;;;;4.68;3.03;;;;;;;1.35;100.00;100034.94;5075771;28;20106;-80
2021/10/24 03:04:34;;;;;;;4.03;2.90;;;;;;;1.34;100.00;100025.19;5075495;28;20091;-80
2021/10/24 03:07:00;;;;;;;7.65;3.40;;;;;;;1.26;100.00;100026.69;5075444;28;20097;-80
2021/10/24 03:09:28;;;;;;;12.40;4.63;;;;;;;1.18;100.00;100025.38;5074978;28;20055;-79
2021/10/24 03:11:54;;;;;;;10.25;3.53;;;;;;;1.18;100.00;100030.72;5075275;28;20048;-80
2021/10/24 03:14:21;;;;;;;7.10;2.97;;;;;;;1.21;100.00;100032.34;5073952;28;20072;-80
2021/10/24 03:16:48;;;;;;;4.88;3.10;;;;;;;1.06;100.00;100019.03;5074751;28;20182;-80
2021/10/24 03:19:16;;;;;;;7.80;2.95;;;;;;;1.03;100.00;100023.72;5075627;28;20048;-80
2021/10/24 03:21:44;;;;;;;4.32;2.80;;;;;;;0.90;100.00;100020.16;5074532;28;20048;-80
2021/10/24 03:24:10;;;;;;;4.95;3.00;;;;;;;0.87;100.00;100022.09;5075377;28;20055;-80
2021/10/24 03:26:37;;;;;;;9.20;3.80;;;;;;;0.82;100.00;100018.84;5074331;28;20060;-80
2021/10/24 03:29:04;;;;;;;8.18;3.25;;;;;;;0.79;100.00;100016.38;5074470;28;20048;-80
2021/10/24 03:31:31;;;;;;;6.30;2.85;;;;;;;0.75;100.00;100022.03;5068248;28;20453;-80
2021/10/24 03:33:58;;;;;;;15.60;3.63;;;;;;;0.79;100.00;100036.94;5074994;28;20048;-80
2021/10/24 03:36:25;;;;;;;6.53;3.10;;;;;;;0.84;100.00;100035.69;5074825;28;20450;-80
2021/10/24 03:38:53;;;;;;;10.20;2.97;;;;;;;0.83;100.00;100038.47;5074455;28;20044;-80
2021/10/24 03:41:20;;;;;;;4.65;2.97;;;;;;;0.80;100.00;100038.63;5074851;28;20048;-80
2021/10/24 03:43:47;;;;;;;6.32;3.20;;;;;;;0.82;100.00;100042.94;5074364;28;20045;-80
2021/10/24 03:46:13;;;;;;;6.57;2.97;;;;;;;0.75;100.00;100036.25;5070268;28;20122;-80
2021/10/24 03:48:40;;;;;;;5.30;2.78;;;;;;;0.83;100.00;100036.63;5072232;28;20036;-80
2021/10/24 03:51:07;;;;;;;6.18;3.08;;;;;;;0.80;100.00;100035.94;5074539;28;20541;-80
2021/10/24 03:53:34;;;;;;;3.47;2.53;;;;;;;0.77;100.00;100045.06;5074598;28;20041;-80
2021/10/24 03:56:02;;;;;;;4.25;2.72;;;;;;;0.66;100.00;100040.44;5073285;28;20481;-80
2021/10/24 03:58:29;;;;;;;7.63;3.00;;;;;;;0.64;100.00;100042.31;5074329;28;20109;-80
2021/10/24 04:00:55;;;;;;;4.35;2.40;;;;;;;0.68;100.00;100048.34;5075030;28;20106;-80
2021/10/24 04:03:22;;;;;;;3.75;2.83;;;;;;;0.62;100.00;100064.81;5061217;28;20459;-80
2021/10/24 04:05:49;;;;;;;8.15;2.97;;;;;;;0.53;100.00;100061.75;5073326;28;20106;-79
2021/10/24 04:08:16;;;;;;;7.50;3.13;;;;;;;0.54;100.00;100059.94;5074394;28;20100;-80
2021/10/24 04:10:44;;;;;;;5.80;3.25;;;;;;;0.53;100.00;100058.22;5073897;28;20099;-80
2021/10/24 04:13:12;;;;;;;8.45;3.70;;;;;;;0.60;100.00;100050.66;5074161;28;20049;-80
2021/10/24 04:15:39;;;;;;;5.68;2.90;;;;;;;0.57;100.00;100046.34;5073516;28;20064;-80
2021/10/24 04:18:05;;;;;;;2.92;2.60;;;;;;;0.48;100.00;100036.25;5074035;28;20117;-79
2021/10/24 04:20:32;;;;;;;3.65;2.67;;;;;;;0.53;100.00;100050.19;5069879;28;20052;-79
2021/10/24 04:22:59;;;;;;;4.35;2.72;;;;;;;0.52;100.00;100040.44;5073822;28;20483;-79
2021/10/24 04:25:26;;;;;;;4.90;2.90;;;;;;;0.47;100.00;100047.94;5074103;28;20044;-80
2021/10/24 04:27:53;;;;;;;5.13;3.28;;;;;;;0.48;100.00;100044.28;5073552;28;20492;-79
2021/10/24 04:30:22;;;;;;;5.90;3.25;;;;;;;0.38;100.00;100040.47;5074082;28;20101;-79
2021/10/24 04:32:49;;;;;;;6.13;3.10;;;;;;;0.51;100.00;100055.66;5073322;28;20036;-80
2021/10/24 04:35:16;;;;;;;6.38;3.15;;;;;;;0.42;100.00;100050.91;5073521;28;20121;-80
2021/10/24 04:37:42;;;;;;;9.35;3.38;;;;;;;0.33;100.00;100047.00;5068907;28;20041;-80
2021/10/24 04:40:10;;;;;;;7.90;3.17;;;;;;;0.32;100.00;100047.09;5073912;28;20045;-80
2021/10/24 04:42:37;;;;;;;7.15;3.25;;;;;;;0.32;100.00;100045.25;5073365;28;20447;-79
2021/10/24 04:45:05;;;;;;;6.32;3.83;;;;;;;0.20;100.00;100040.69;5073137;28;20053;-80
2021/10/24 04:47:34;;;;;;;3.60;3.15;;;;;;;0.26;100.00;100044.81;5073561;28;20488;-80
2021/10/24 04:50:00;;;;;;;9.15;3.72;;;;;;;0.23;100.00;100040.50;5073354;28;20045;-80
2021/10/24 04:52:27;;;;;;;5.43;3.88;;;;;;;0.22;100.00;100029.91;5073617;28;20052;-80
2021/10/24 04:54:54;;;;;;;7.50;3.40;;;;;;;0.19;100.00;100033.63;5072294;28;20064;-80
2021/10/24 04:57:21;;;;;;;7.13;3.58;;;;;;;0.21;100.00;100028.19;5054377;28;20119;-80
2021/10/24 04:59:48;;;;;;;3.33;2.75;;;;;;;0.06;100.00;100020.19;5070282;28;20128;-80
2021/10/24 05:02:15;;;;;;;5.88;3.45;;;;;;;0.13;100.00;100026.00;5073437;28;20408;-80
2021/10/24 05:04:43;;;;;;;6.43;3.50;;;;;;;0.12;100.00;100030.50;5072995;28;20048;-80
2021/10/24 05:07:11;;;;;;;8.90;3.03;;;;;;;0.14;100.00;100036.59;5072681;28;20438;-80
2021/10/24 05:09:37;;;;;;;5.25;3.55;;;;;;;0.11;100.00;100033.25;5072044;28;20052;-80
2021/10/24 05:12:05;;;;;;;5.25;3.60;;;;;;;0.09;100.00;100028.00;5072686;28;20110;-80
2021/10/24 05:14:31;;;;;;;6.72;3.55;;;;;;;-0.05;100.00;100011.97;5072108;28;20045;-80
2021/10/24 05:16:58;;;;;;;9.93;3.35;;;;;;;0.08;100.00;100036.13;5073095;28;20048;-79
2021/10/24 05:19:25;;;;;;;7.13;4.05;;;;;;;0.17;100.00;100024.84;5066784;28;20488;-80
2021/10/24 05:21:54;;;;;;;7.40;3.65;;;;;;;0.09;100.00;100014.63;5067251;28;20053;-81
2021/10/24 05:24:20;;;;;;;7.35;3.20;;;;;;;0.12;100.00;100025.16;5071977;28;20040;-80
2021/10/24 05:26:47;;;;;;;7.43;3.05;;;;;;;-0.04;100.00;100011.03;5072849;28;20064;-80
2021/10/24 05:29:14;;;;;;;5.70;2.97;;;;;;;-0.09;100.00;99989.94;5060218;28;20067;-81
2021/10/24 05:31:40;;;;;;;3.05;2.70;;;;;;;0.12;100.00;100021.59;5071784;28;20492;-81
2021/10/24 05:34:07;;;;;;;8.55;3.20;;;;;;;-0.05;100.00;100003.94;5071610;28;20056;-81
2021/10/24 05:36:34;;;;;;;5.45;3.28;;;;;;;-0.01;100.00;100011.69;5070463;28;20056;-81
2021/10/24 05:39:02;;;;;;;6.00;3.40;;;;;;;-0.09;100.00;100007.75;5070784;28;20044;-81
2021/10/24 05:41:31;;;;;;;7.80;4.68;;;;;;;-0.08;100.00;100018.34;5072352;28;20443;-81
2021/10/24 05:43:58;;;;;;;5.10;3.83;;;;;;;-0.02;100.00;100014.44;5064818;28;20084;-81
2021/10/24 05:46:25;;;;;;;6.28;4.00;;;;;;;-0.07;100.00;100005.88;5071328;28;20040;-81
2021/10/24 05:48:52;;;;;;;9.73;4.72;;;;;;;-0.15;100.00;99997.47;5071730;28;20094;-80
2021/10/24 05:51:18;;;;;;;5.13;3.60;;;;;;;-0.11;100.00;100013.19;5070955;28;20048;-81
2021/10/24 05:53:45;;;;;;;11.45;6.88;;;;;;;-0.13;100.00;100011.59;5071244;28;20048;-81
2021/10/24 05:56:14;;;;;;;11.13;5.90;;;;;;;-0.10;100.00;99992.69;5071095;28;20036;-81
2021/10/24 05:58:42;;;;;;;8.77;5.50;;;;;;;-0.19;100.00;100003.00;5071940;28;20049;-81
2021/10/24 06:01:09;;;;;;;11.98;5.85;;;;;;;-0.24;100.00;99993.53;5070966;28;20499;-81
2021/10/24 06:03:35;;;;;;;9.43;5.47;;;;;;;-0.28;100.00;100011.59;5071535;28;20484;-81
2021/10/24 06:06:02;;;;;;;10.57;5.50;;;;;;;-0.43;100.00;99996.50;5070884;28;20097;-81
2021/10/24 06:08:31;;;;;;;6.32;4.28;;;;;;;-0.40;100.00;99997.16;5071831;28;20041;-81
2021/10/24 06:11:05;;;;;;;6.67;4.70;;;;;;;-0.42;100.00;100007.09;5071949;28;20412;-81
2021/10/24 06:13:33;;;;;;;7.53;4.33;;;;;;;-0.34;100.00;100011.97;5071258;28;20053;-81
2021/10/24 06:16:00;;;;;;;7.28;4.70;;;;;;;-0.34;100.00;100003.94;5070744;28;20044;-80
2021/10/24 06:18:27;;;;;;;9.27;5.03;;;;;;;-0.23;100.00;100012.16;5071461;28;20045;-81
2021/10/24 06:20:53;;;;;;;6.37;3.90;;;;;;;-0.25;100.00;100013.22;5070539;28;20045;-81
2021/10/24 06:23:20;;;;;;;5.93;4.60;;;;;;;-0.21;100.00;100014.72;5071759;28;20097;-81
2021/10/24 06:25:47;;;;;;;6.43;4.78;;;;;;;-0.21;100.00;100033.44;5071283;28;20044;-80
2021/10/24 06:28:15;;;;;;;6.70;3.97;;;;;;;-0.21;100.00;100012.06;5071332;28;20051;-80
2021/10/24 06:30:45;;;;;;;7.45;4.35;;;;;;;-0.16;100.00;100031.34;5070863;28;20493;-81
2021/10/24 06:33:12;;;;;;;6.00;3.53;;;;;;;-0.36;100.00;100011.22;5070665;28;20046;-81
2021/10/24 06:35:39;;;;;;;15.27;4.60;;;;;;;-0.28;100.00;100024.09;5062140;28;20053;-81
2021/10/24 06:38:05;;;;;;;5.87;4.60;;;;;;;-0.35;100.00;100018.25;5070071;28;20049;-81
2021/10/24 06:40:32;;;;;;;6.70;4.33;;;;;;;-0.30;100.00;100026.88;5071391;28;20040;-81
2021/10/24 06:42:59;;;;;;;7.97;4.47;;;;;;;-0.25;100.00;100034.59;5071255;28;20052;-81
2021/10/24 06:45:27;;;;;;;9.60;4.25;;;;;;;-0.23;100.00;100032.69;5069518;28;20052;-81
2021/10/24 06:48:02;;;;;;;6.57;4.47;;;;;;;-0.15;100.00;100029.53;5070783;28;20072;-81
2021/10/24 06:50:29;;;;;;;6.87;4.23;;;;;;;-0.12;100.00;100029.34;5070944;28;20044;-80
2021/10/24 06:52:55;;;;;;;12.07;4.37;;;;;;;-0.16;100.00;100018.00;5070752;28;20044;-80
2021/10/24 06:55:22;;;;;;;7.17;4.33;;;;;;;-0.02;100.00;100023.31;5070511;28;20051;-81
2021/10/24 06:57:52;;;;;;;11.43;4.80;;;;;;;0.04;100.00;100023.91;5070995;28;20052;-81
2021/10/24 07:00:21;;;;;;;9.93;4.63;;;;;;;0.05;100.00;100030.97;5071057;28;20510;-81
2021/10/24 07:02:48;;;;;;;14.97;5.70;;;;;;;0.14;100.00;100028.56;5071057;28;20053;-81
2021/10/24 07:05:18;;;;;;;12.50;5.63;;;;;;;0.24;100.00;100026.19;5070252;28;20669;-81
2021/10/24 07:07:45;;;;;;;8.55;5.47;;;;;;;0.35;100.00;100039.72;5064637;28;20044;-81
2021/10/24 07:10:16;;;;;;;8.57;5.37;;;;;;;0.29;100.00;100005.34;5068721;28;20048;-80
2021/10/24 07:12:43;;;;;;;9.52;5.20;;;;;;;0.45;100.00;100023.94;5071774;28;20040;-81
2021/10/24 07:15:11;;;;;;;7.07;4.97;;;;;;;0.55;100.00;100024.19;5070246;28;20086;-81
2021/10/24 07:17:38;;;;;;;8.60;5.72;;;;;;;0.60;100.00;100031.91;5069792;28;20051;-81
2021/10/24 07:20:06;;;;;;;12.20;5.95;;;;;;;0.66;100.00;100039.53;5070616;28;20461;-81
2021/10/24 07:22:34;;;;;;;12.20;5.75;;;;;;;0.57;100.00;100024.09;5070467;28;20125;-81
2021/10/24 07:25:01;;;;;;;12.25;5.53;;;;;;;0.78;100.00;100032.53;5069796;28;20047;-81
2021/10/24 07:27:28;;;;;;;12.98;6.00;;;;;;;0.80;100.00;100022.56;5071034;28;20048;-81
2021/10/24 07:29:55;;;;;;;9.00;5.60;;;;;;;0.83;100.00;100023.25;5069960;28;20040;-81
2021/10/24 07:32:23;;;;;;;8.13;5.00;;;;;;;0.99;100.00;100040.97;5072731;28;20114;-81
2021/10/24 07:34:49;;;;;;;11.70;6.65;;;;;;;1.17;100.00;100038.88;5073362;28;20044;-81
2021/10/24 07:37:16;;;;;;;9.60;5.65;;;;;;;1.16;100.00;100042.50;5074458;28;20041;-81
2021/10/24 07:39:46;;;;;;;9.95;6.15;;;;;;;1.27;100.00;100042.66;5066913;28;20048;-81
2021/10/24 07:42:12;;;;;;;12.82;5.57;;;;;;;1.18;100.00;100017.34;5074526;28;20102;-81
2021/10/24 07:44:40;;;;;;;9.52;5.55;;;;;;;1.43;100.00;100037.13;5073586;28;20090;-81
2021/10/24 07:47:07;;;;;;;16.25;5.53;;;;;;;1.34;100.00;100022.53;5073443;28;20127;-81
2021/10/24 07:49:36;;;;;;;13.88;6.40;;;;;;;1.46;100.00;100026.19;5072882;28;20101;-80
2021/10/24 07:52:04;;;;;;;13.82;5.70;;;;;;;1.62;100.00;100038.53;5075195;28;20447;-80
2021/10/24 07:54:43;;;;;;;12.55;6.05;;;;;;;1.72;100.00;100021.69;5075054;28;20444;-81
2021/10/24 07:57:11;;;;;;;10.82;5.05;;;;;;;1.82;100.00;100029.94;5075275;28;20097;-81
2021/10/24 07:59:38;;;;;;;13.48;6.03;;;;;;;1.86;100.00;100025.22;5074981;28;20110;-82
2021/10/24 08:02:05;;;;;;;9.60;5.22;;;;;;;1.84;100.00;100019.97;5075588;28;20404;-82
2021/10/24 08:04:49;;;;;;;10.95;5.65;;;;;;;2.00;100.00;100026.91;5075278;28;20125;-79
2021/10/24 08:07:17;;;;;;;8.65;5.10;;;;;;;2.07;100.00;100033.56;5075693;28;20098;-79
2021/10/24 08:09:45;;;;;;;7.45;4.78;;;;;;;2.19;100.00;100034.53;5075161;28;20055;-82
2021/10/24 08:12:13;;;;;;;7.90;4.93;;;;;;;2.20;100.00;100015.63;5074904;28;20393;-79
2021/10/24 08:14:40;;;;;;;10.18;5.35;;;;;;;2.33;100.00;100029.00;5074834;28;20047;-79
2021/10/24 08:17:08;;;;;;;14.13;5.57;;;;;;;2.42;100.00;100019.44;5073870;28;20040;-79
2021/10/24 08:19:35;;;;;;;8.98;4.72;;;;;;;2.46;100.00;100021.78;5073123;28;20045;-80
2021/10/24 08:22:02;;;;;;;9.55;5.85;;;;;;;2.57;100.00;100020.16;5073885;28;20060;-81
2021/10/24 08:24:29;;;;;;;8.20;4.63;;;;;;;2.55;100.00;99998.78;5072018;28;20056;-80
2021/10/24 08:26:56;;;;;;;9.35;5.55;;;;;;;2.62;100.00;99994.69;5074350;28;20535;-80
2021/10/24 08:29:24;;;;;;;10.43;5.03;;;;;;;2.76;100.00;100000.84;5074380;28;20081;-80
2021/10/24 08:31:53;;;;;;;9.15;5.00;;;;;;;2.89;100.00;100009.72;5073807;28;20094;-81
2021/10/24 08:34:21;;;;;;;8.27;4.85;;;;;;;3.00;100.00;100006.22;5071312;28;20131;-80
2021/10/24 08:36:51;;;;;;;9.35;4.60;;;;;;;3.24;100.00;100014.25;5072907;28;20084;-80
2021/10/24 08:39:18;;;;;;;7.63;4.20;;;;;;;3.24;100.00;100005.31;5073313;28;20048;-81
2021/10/24 08:43:46;;;;;;;10.20;5.07;;;;;;;3.40;100.00;99996.94;5089139;27;20381;-82
2021/10/24 08:46:12;;;;;;;9.32;5.03;;;;;;;3.53;100.00;99998.53;5083653;28;20048;-82
2021/10/24 08:48:39;;;;;;;12.00;5.30;;;;;;;3.66;100.00;100000.31;5088788;28;20549;-82
2021/10/24 08:51:06;;;;;;;13.00;5.47;;;;;;;3.70;100.00;99988.31;5088285;28;20123;-81
2021/10/24 08:53:38;;;;;;;6.63;4.53;;;;;;;3.83;100.00;99980.13;5089377;28;20059;-82
2021/10/24 08:56:06;;;;;;;10.18;4.75;;;;;;;3.98;100.00;99978.91;5088685;28;20059;-82
2021/10/24 08:58:33;;;;;;;8.63;4.28;;;;;;;4.18;100.00;99995.28;5088781;28;20048;-82
2021/10/24 09:01:01;;;;;;;10.98;5.88;;;;;;;4.21;100.00;99981.59;5076308;28;20052;-82
2021/10/24 09:03:28;;;;;;;9.95;4.68;;;;;;;4.42;100.00;99989.75;5088058;28;20537;-82
2021/10/24 09:05:54;;;;;;;8.68;4.57;;;;;;;4.51;100.00;99972.84;5088792;28;20093;-82
2021/10/24 09:08:23;;;;;;;10.98;4.85;;;;;;;4.77;100.00;99986.84;5079180;28;20068;-81
2021/10/24 09:10:51;;;;;;;11.48;5.75;;;;;;;4.86;100.00;99978.97;5068749;28;20098;-81
2021/10/24 09:13:20;;;;;;;6.47;4.78;;;;;;;4.97;100.00;99987.03;5078910;28;20048;-82
2021/10/24 09:15:52;;;;;;;10.45;4.35;;;;;;;5.09;100.00;99986.00;5077344;28;20056;-82
2021/10/24 09:18:23;;;;;;;8.10;4.85;;;;;;;5.21;99.62;99969.75;5074497;28;20123;-82
2021/10/24 09:20:50;;;;;;;7.57;4.28;;;;;;;5.43;98.95;99984.94;5089017;28;20048;-82
2021/10/24 09:23:18;;;;;;;9.75;4.90;;;;;;;5.46;98.50;99960.41;5087645;28;20040;-82
2021/10/24 09:25:54;;;;;;;9.25;5.32;;;;;;;5.76;98.50;99977.63;5088101;28;20089;-82
2021/10/24 09:28:22;;;;;;;8.10;3.55;;;;;;;6.12;96.82;99983.50;5088780;28;20094;-82
2021/10/24 09:30:58;;;;;;;9.63;3.60;;;;;;;6.28;93.84;99981.16;5087799;28;20040;-82
2021/10/24 09:33:41;;;;;;;8.02;3.40;;;;;;;6.51;92.61;99972.81;5088137;28;20791;-82
2021/10/24 09:36:08;;;;;;;5.43;2.92;;;;;;;6.80;90.37;99969.31;5083988;28;20036;-83
2021/10/24 09:38:39;;;;;;;10.00;3.10;;;;;;;6.89;89.78;99963.94;5087902;28;20556;-82
2021/10/24 09:41:06;;;;;;;6.93;3.40;;;;;;;7.02;89.71;99969.03;5087499;28;20048;-82
2021/10/24 09:43:34;;;;;;;4.88;2.90;;;;;;;7.12;89.24;99962.75;5087478;28;20094;-82
2021/10/24 09:46:16;;;;;;;4.32;2.67;;;;;;;7.29;86.92;99947.66;5083032;28;20044;-82
2021/10/24 09:48:54;;;;;;;6.10;2.72;;;;;;;7.49;86.94;99954.75;5082678;28;20052;-82
2021/10/24 09:51:21;;;;;;;6.35;2.80;;;;;;;7.54;88.32;99949.78;5087722;28;20124;-82
2021/10/24 09:53:50;;;;;;;5.65;2.85;;;;;;;7.68;86.23;99936.75;5080776;28;20094;-82
2021/10/24 09:56:19;;;;;;;5.57;2.53;;;;;;;7.79;83.76;99940.13;5074079;28;20055;-82
2021/10/24 09:58:48;;;;;;;7.93;3.38;;;;;;;7.96;84.83;99938.50;5074512;28;20075;-82
2021/10/24 10:01:17;;;;;;;5.35;2.88;;;;;;;7.96;84.98;99941.22;5058882;28;20045;-82
2021/10/24 10:03:46;;;;;;;6.13;2.63;;;;;;;7.89;83.99;99925.69;5061528;28;20210;-82
2021/10/24 10:06:14;;;;;;;12.30;3.20;;;;;;;7.90;85.73;99922.00;5073770;28;20135;-83
2021/10/24 10:08:44;;;;;;;4.57;2.70;;;;;;;7.88;85.57;99907.78;5074753;28;20127;-81
2021/10/24 10:11:18;;;;;;;8.90;2.80;;;;;;;8.11;85.96;99930.75;5074334;28;20045;-81
2021/10/24 10:13:48;;;;;;;7.68;2.75;;;;;;;8.22;85.51;99924.28;5074447;28;20048;-81
2021/10/24 10:16:17;;;;;;;4.33;2.87;;;;;;;8.42;83.71;99916.03;5073931;28;20054;-81
2021/10/24 10:19:03;;;;;;;6.22;2.50;;;;;;;8.64;83.59;99921.03;5074580;28;20087;-81
2021/10/24 10:21:33;;;;;;;4.72;1.98;;;;;;;8.86;82.54;99911.56;5073674;28;20047;-81
2021/10/24 10:24:00;;;;;;;;;;;;;;;9.09;78.99;99913.81;5074683;28;20483;-81
2021/10/24 10:26:39;;;;;;;3.75;1.95;;;;;;;9.16;80.36;99917.59;5073224;28;19921;-81
2021/10/24 10:29:09;;;;;;;6.75;2.13;;;;;;;9.12;78.65;99899.06;5054464;28;20045;-80
2021/10/24 10:31:37;;;;;;;3.70;1.70;;;;;;;9.32;79.41;99897.00;5058038;28;20052;-81
2021/10/24 10:34:06;;;;;;;3.75;1.70;;;;;;;9.51;80.37;99904.94;5057816;28;20292;-81
2021/10/24 10:37:00;;;;;;;5.70;1.80;;;;;;;9.60;74.83;99902.28;5055939;28;20052;-81
2021/10/24 10:39:44;;;;;;;1.75;1.50;;;;;;;9.74;75.53;99894.41;5072574;28;20048;-81
2021/10/24 10:42:49;;;;;;;2.83;1.60;;;;;;;9.80;75.88;99892.03;5073510;28;20051;-81
2021/10/24 10:45:25;;;;;;;3.60;1.90;;;;;;;9.94;73.36;99893.31;5053677;28;20052;-81
2021/10/24 10:47:54;;;;;;;3.28;1.50;;;;;;;10.05;71.80;99879.44;5061271;28;20407;-81
2021/10/24 10:50:45;;;;;;;4.95;1.48;;;;;;;10.30;71.73;99876.78;5072873;28;20117;-81
2021/10/24 10:53:41;;;;;;;2.75;1.50;;;;;;;10.26;72.45;99866.25;5071572;28;20472;-82
2021/10/24 10:56:29;;;;;;;5.57;1.67;;;;;;;10.31;72.44;99873.91;5072473;28;20123;-81
2021/10/24 10:58:57;;;;;;;2.17;1.60;;;;;;;10.32;71.79;99859.31;5073422;28;20052;-81
2021/10/24 11:01:31;;;;;;;2.65;1.65;;;;;;;10.52;71.16;99869.91;5073320;28;20056;-81
2021/10/24 11:04:00;;;;;;;5.03;1.75;;;;;;;10.55;72.02;99859.56;5073471;28;20045;-81
2021/10/24 11:06:50;;;;;;;8.15;1.95;;;;;;;10.76;70.48;99869.09;5071454;28;20106;-82
2021/10/24 11:09:53;;;;;;;4.65;1.20;;;;;;;10.91;69.25;99871.97;5073711;28;20499;-82
2021/10/24 11:12:39;;;;;;;1.70;1.10;;;;;;;10.95;66.58;99863.31;5072831;28;20041;-81
2021/10/24 11:15:29;;;;;;;3.42;1.27;;;;;;;10.96;67.02;99848.69;5073269;28;20075;-81
2021/10/24 11:17:58;;;;;;;3.00;1.30;;;;;;;11.07;67.85;99847.50;5072636;28;20060;-82
2021/10/24 11:20:39;;;;;;;2.95;1.40;;;;;;;11.19;69.31;99841.72;5073307;28;20419;-82
2021/10/24 11:23:10;;;;;;;1.60;1.10;;;;;;;11.23;66.24;99841.19;5072192;28;20127;-82
2021/10/24 11:25:38;;;;;;;3.22;1.10;;;;;;;11.31;66.20;99835.72;5072990;28;20169;-82
2021/10/24 11:28:22;;;;;;;1.42;1.27;;;;;;;11.38;65.48;99825.00;5069668;28;20044;-81
2021/10/24 11:30:59;;;;;;;5.32;1.50;;;;;;;11.52;66.56;99837.03;5053086;28;20550;-82
2021/10/24 11:33:26;;;;;;;5.30;2.25;;;;;;;11.52;65.18;99820.69;5064419;28;20148;-82
2021/10/24 11:35:52;;;;;;;2.55;1.10;;;;;;;11.66;62.97;99824.56;5072677;28;20044;-81